Vienna, Ohio
Current Conditions -  °F | °C
As of 2:51 PM on Saturday 25 Oct 2014 (Local Time) from KYNG Reporting Station
Broken Clouds Broken Clouds  
Wind Chill: 68°   Ceiling: 3600
Heat Index: 68°   Visibility: 10mi
Dew Point: 52°   Wind: 13mph
Humidity: 56%   Direction: 250°WSW
Pressure: 29.76"   Gusts: 21mph
Location:  41.24°N, 80.66°W
Report Text: KYNG 251851Z 25011G18KT 10SM BKN036 20/11 A2976 RMK AO2 SLP074 T02000111 $
Loading
Personal Weather Stations






























Interactive Weather Map
Tropical Storm Tracking
New forecast layout! Learn more

10-Day Weather Forecast

Advertisements
Track Severe Weather on mobile